sensor_id;sensor_type;location;lat;lon;timestamp;P1;durP1;ratioP1;P2;durP2;ratioP2
59504;SDS011;45321;53.200;5.814;2022-11-21T00:01:33;27.77;;;19.83;;
59504;SDS011;45321;53.200;5.814;2022-11-21T00:03:58;24.83;;;18.35;;
59504;SDS011;45321;53.200;5.814;2022-11-21T00:06:24;24.00;;;17.45;;
59504;SDS011;45321;53.200;5.814;2022-11-21T00:08:50;25.00;;;18.13;;
59504;SDS011;45321;53.200;5.814;2022-11-21T00:11:16;26.10;;;18.70;;
59504;SDS011;45321;53.200;5.814;2022-11-21T00:13:42;33.95;;;22.70;;
59504;SDS011;45321;53.200;5.814;2022-11-21T00:16:10;25.90;;;18.23;;
59504;SDS011;45321;53.200;5.814;2022-11-21T00:18:37;25.65;;;18.42;;
59504;SDS011;45321;53.200;5.814;2022-11-21T00:21:04;24.13;;;18.45;;
59504;SDS011;45321;53.200;5.814;2022-11-21T00:23:35;26.08;;;18.33;;
59504;SDS011;45321;53.200;5.814;2022-11-21T00:26:05;27.27;;;18.48;;
59504;SDS011;45321;53.200;5.814;2022-11-21T00:28:31;24.77;;;17.90;;
59504;SDS011;45321;53.200;5.814;2022-11-21T00:30:57;27.90;;;18.88;;
59504;SDS011;45321;53.200;5.814;2022-11-21T00:33:23;23.05;;;17.30;;
59504;SDS011;45321;53.200;5.814;2022-11-21T00:35:49;25.85;;;18.38;;
59504;SDS011;45321;53.200;5.814;2022-11-21T00:38:14;27.40;;;18.80;;
59504;SDS011;45321;53.200;5.814;2022-11-21T00:40:43;27.80;;;19.15;;
59504;SDS011;45321;53.200;5.814;2022-11-21T00:43:10;27.13;;;18.83;;
59504;SDS011;45321;53.200;5.814;2022-11-21T00:45:36;28.23;;;20.00;;
59504;SDS011;45321;53.200;5.814;2022-11-21T00:48:01;26.50;;;19.58;;
59504;SDS011;45321;53.200;5.814;2022-11-21T00:50:27;29.58;;;19.95;;
59504;SDS011;45321;53.200;5.814;2022-11-21T00:52:54;30.50;;;20.80;;
59504;SDS011;45321;53.200;5.814;2022-11-21T00:55:20;30.88;;;20.15;;
59504;SDS011;45321;53.200;5.814;2022-11-21T00:57:46;28.20;;;19.65;;
59504;SDS011;45321;53.200;5.814;2022-11-21T01:00:12;28.80;;;20.65;;
59504;SDS011;45321;53.200;5.814;2022-11-21T01:02:38;27.50;;;19.95;;
59504;SDS011;45321;53.200;5.814;2022-11-21T01:05:04;28.40;;;20.17;;
59504;SDS011;45321;53.200;5.814;2022-11-21T01:07:30;27.15;;;18.73;;
59504;SDS011;45321;53.200;5.814;2022-11-21T01:09:56;26.52;;;19.83;;
59504;SDS011;45321;53.200;5.814;2022-11-21T01:12:22;28.23;;;19.15;;
59504;SDS011;45321;53.200;5.814;2022-11-21T01:14:48;30.90;;;20.02;;
59504;SDS011;45321;53.200;5.814;2022-11-21T01:17:14;28.40;;;19.15;;
59504;SDS011;45321;53.200;5.814;2022-11-21T01:19:40;24.77;;;18.70;;
59504;SDS011;45321;53.200;5.814;2022-11-21T01:22:06;28.88;;;20.67;;
59504;SDS011;45321;53.200;5.814;2022-11-21T01:24:31;28.25;;;19.88;;
59504;SDS011;45321;53.200;5.814;2022-11-21T01:26:57;30.23;;;20.60;;
59504;SDS011;45321;53.200;5.814;2022-11-21T01:29:23;28.27;;;20.10;;
59504;SDS011;45321;53.200;5.814;2022-11-21T01:31:49;30.00;;;20.10;;
59504;SDS011;45321;53.200;5.814;2022-11-21T01:34:15;30.92;;;20.67;;
59504;SDS011;45321;53.200;5.814;2022-11-21T01:36:41;27.73;;;19.40;;
59504;SDS011;45321;53.200;5.814;2022-11-21T01:39:07;29.65;;;20.20;;
59504;SDS011;45321;53.200;5.814;2022-11-21T01:41:35;30.02;;;19.73;;
59504;SDS011;45321;53.200;5.814;2022-11-21T01:46:38;32.35;;;21.20;;
59504;SDS011;45321;53.200;5.814;2022-11-21T01:49:20;25.65;;;19.70;;
59504;SDS011;45321;53.200;5.814;2022-11-21T01:52:07;28.17;;;19.80;;
59504;SDS011;45321;53.200;5.814;2022-11-21T01:54:54;25.38;;;18.27;;
59504;SDS011;45321;53.200;5.814;2022-11-21T01:57:59;29.95;;;20.50;;
59504;SDS011;45321;53.200;5.814;2022-11-21T02:00:22;30.67;;;19.48;;
59504;SDS011;45321;53.200;5.814;2022-11-21T02:02:51;29.90;;;19.75;;
59504;SDS011;45321;53.200;5.814;2022-11-21T02:05:21;30.02;;;19.88;;
59504;SDS011;45321;53.200;5.814;2022-11-21T02:07:57;26.33;;;19.98;;
59504;SDS011;45321;53.200;5.814;2022-11-21T02:10:28;29.65;;;20.20;;
59504;SDS011;45321;53.200;5.814;2022-11-21T02:12:54;28.85;;;19.98;;
59504;SDS011;45321;53.200;5.814;2022-11-21T02:15:23;31.25;;;21.40;;
59504;SDS011;45321;53.200;5.814;2022-11-21T02:17:51;30.20;;;21.05;;
59504;SDS011;45321;53.200;5.814;2022-11-21T02:20:18;29.60;;;21.70;;
59504;SDS011;45321;53.200;5.814;2022-11-21T02:22:59;29.23;;;19.75;;
59504;SDS011;45321;53.200;5.814;2022-11-21T02:28:04;28.77;;;19.90;;
59504;SDS011;45321;53.200;5.814;2022-11-21T02:30:33;28.58;;;20.05;;
59504;SDS011;45321;53.200;5.814;2022-11-21T02:33:01;31.00;;;20.85;;
59504;SDS011;45321;53.200;5.814;2022-11-21T02:35:27;30.63;;;21.63;;
59504;SDS011;45321;53.200;5.814;2022-11-21T02:37:57;31.45;;;20.80;;
59504;SDS011;45321;53.200;5.814;2022-11-21T02:40:24;30.55;;;21.17;;
59504;SDS011;45321;53.200;5.814;2022-11-21T02:45:38;28.88;;;20.48;;
59504;SDS011;45321;53.200;5.814;2022-11-21T02:48:08;29.23;;;21.20;;
59504;SDS011;45321;53.200;5.814;2022-11-21T02:50:37;28.45;;;19.73;;
59504;SDS011;45321;53.200;5.814;2022-11-21T02:53:05;32.78;;;21.92;;
59504;SDS011;45321;53.200;5.814;2022-11-21T02:55:32;31.73;;;21.10;;
59504;SDS011;45321;53.200;5.814;2022-11-21T02:57:58;28.35;;;20.45;;
59504;SDS011;45321;53.200;5.814;2022-11-21T03:00:24;32.25;;;21.08;;
59504;SDS011;45321;53.200;5.814;2022-11-21T03:02:50;30.58;;;19.95;;
59504;SDS011;45321;53.200;5.814;2022-11-21T03:05:16;30.85;;;21.10;;
59504;SDS011;45321;53.200;5.814;2022-11-21T03:07:43;32.20;;;21.92;;
59504;SDS011;45321;53.200;5.814;2022-11-21T03:10:09;33.90;;;21.85;;
59504;SDS011;45321;53.200;5.814;2022-11-21T03:12:36;33.50;;;23.27;;
59504;SDS011;45321;53.200;5.814;2022-11-21T03:15:04;32.17;;;21.92;;
59504;SDS011;45321;53.200;5.814;2022-11-21T03:17:31;31.83;;;22.02;;
59504;SDS011;45321;53.200;5.814;2022-11-21T03:19:57;32.55;;;22.05;;
59504;SDS011;45321;53.200;5.814;2022-11-21T03:22:23;31.77;;;21.70;;
59504;SDS011;45321;53.200;5.814;2022-11-21T03:24:49;29.23;;;21.05;;
59504;SDS011;45321;53.200;5.814;2022-11-21T03:27:14;31.65;;;20.75;;
59504;SDS011;45321;53.200;5.814;2022-11-21T03:29:40;30.63;;;21.17;;
59504;SDS011;45321;53.200;5.814;2022-11-21T03:32:06;33.22;;;21.83;;
59504;SDS011;45321;53.200;5.814;2022-11-21T03:34:32;31.00;;;21.65;;
59504;SDS011;45321;53.200;5.814;2022-11-21T03:36:57;32.75;;;22.50;;
59504;SDS011;45321;53.200;5.814;2022-11-21T03:39:23;30.20;;;21.00;;
59504;SDS011;45321;53.200;5.814;2022-11-21T03:41:49;32.85;;;22.15;;
59504;SDS011;45321;53.200;5.814;2022-11-21T03:44:15;31.77;;;21.58;;
59504;SDS011;45321;53.200;5.814;2022-11-21T03:46:42;31.02;;;21.55;;
59504;SDS011;45321;53.200;5.814;2022-11-21T03:49:09;30.35;;;21.35;;
59504;SDS011;45321;53.200;5.814;2022-11-21T03:51:35;31.45;;;21.48;;
59504;SDS011;45321;53.200;5.814;2022-11-21T03:54:02;33.75;;;22.05;;
59504;SDS011;45321;53.200;5.814;2022-11-21T03:56:28;29.80;;;21.42;;
59504;SDS011;45321;53.200;5.814;2022-11-21T03:58:54;29.95;;;22.10;;
59504;SDS011;45321;53.200;5.814;2022-11-21T04:01:21;31.88;;;21.65;;
59504;SDS011;45321;53.200;5.814;2022-11-21T04:03:47;31.58;;;21.73;;
59504;SDS011;45321;53.200;5.814;2022-11-21T04:06:13;34.05;;;22.15;;
59504;SDS011;45321;53.200;5.814;2022-11-21T04:08:40;29.85;;;19.75;;
59504;SDS011;45321;53.200;5.814;2022-11-21T04:11:07;33.50;;;20.98;;
59504;SDS011;45321;53.200;5.814;2022-11-21T04:13:33;32.47;;;23.17;;
59504;SDS011;45321;53.200;5.814;2022-11-21T04:15:59;31.42;;;22.05;;
59504;SDS011;45321;53.200;5.814;2022-11-21T04:18:25;32.45;;;21.73;;
59504;SDS011;45321;53.200;5.814;2022-11-21T04:21:01;31.58;;;21.95;;
59504;SDS011;45321;53.200;5.814;2022-11-21T04:23:29;31.90;;;21.77;;
59504;SDS011;45321;53.200;5.814;2022-11-21T04:25:54;37.17;;;22.88;;
59504;SDS011;45321;53.200;5.814;2022-11-21T04:28:20;31.65;;;21.92;;
59504;SDS011;45321;53.200;5.814;2022-11-21T04:30:46;30.50;;;21.60;;
59504;SDS011;45321;53.200;5.814;2022-11-21T04:33:13;34.67;;;23.23;;
59504;SDS011;45321;53.200;5.814;2022-11-21T04:35:39;32.20;;;21.67;;
59504;SDS011;45321;53.200;5.814;2022-11-21T04:38:07;32.25;;;22.30;;
59504;SDS011;45321;53.200;5.814;2022-11-21T04:40:33;35.28;;;22.80;;
59504;SDS011;45321;53.200;5.814;2022-11-21T04:42:59;32.72;;;21.75;;
59504;SDS011;45321;53.200;5.814;2022-11-21T04:45:25;33.78;;;21.77;;
59504;SDS011;45321;53.200;5.814;2022-11-21T04:47:51;34.58;;;22.80;;
59504;SDS011;45321;53.200;5.814;2022-11-21T04:50:17;35.80;;;23.77;;
59504;SDS011;45321;53.200;5.814;2022-11-21T04:52:53;35.60;;;23.33;;
59504;SDS011;45321;53.200;5.814;2022-11-21T04:55:21;32.35;;;22.98;;
59504;SDS011;45321;53.200;5.814;2022-11-21T04:57:48;34.40;;;23.42;;
59504;SDS011;45321;53.200;5.814;2022-11-21T05:00:14;35.38;;;22.67;;
59504;SDS011;45321;53.200;5.814;2022-11-21T05:02:41;34.08;;;22.48;;
59504;SDS011;45321;53.200;5.814;2022-11-21T05:05:07;34.17;;;23.33;;
59504;SDS011;45321;53.200;5.814;2022-11-21T05:07:33;35.22;;;22.55;;
59504;SDS011;45321;53.200;5.814;2022-11-21T05:09:59;36.47;;;23.65;;
59504;SDS011;45321;53.200;5.814;2022-11-21T05:12:25;34.45;;;22.58;;
59504;SDS011;45321;53.200;5.814;2022-11-21T05:15:09;34.40;;;22.35;;
59504;SDS011;45321;53.200;5.814;2022-11-21T05:17:35;32.78;;;22.33;;
59504;SDS011;45321;53.200;5.814;2022-11-21T05:20:01;33.13;;;22.52;;
59504;SDS011;45321;53.200;5.814;2022-11-21T05:22:27;31.58;;;22.10;;
59504;SDS011;45321;53.200;5.814;2022-11-21T05:24:53;33.28;;;21.88;;
59504;SDS011;45321;53.200;5.814;2022-11-21T05:27:19;36.05;;;22.90;;
59504;SDS011;45321;53.200;5.814;2022-11-21T05:29:44;32.28;;;22.25;;
59504;SDS011;45321;53.200;5.814;2022-11-21T05:32:10;34.28;;;23.70;;
59504;SDS011;45321;53.200;5.814;2022-11-21T05:34:36;34.45;;;24.02;;
59504;SDS011;45321;53.200;5.814;2022-11-21T05:37:02;31.85;;;23.30;;
59504;SDS011;45321;53.200;5.814;2022-11-21T05:39:27;39.05;;;24.15;;
59504;SDS011;45321;53.200;5.814;2022-11-21T05:41:53;37.08;;;23.38;;
59504;SDS011;45321;53.200;5.814;2022-11-21T05:44:19;34.03;;;23.77;;
59504;SDS011;45321;53.200;5.814;2022-11-21T05:46:45;37.53;;;24.08;;
59504;SDS011;45321;53.200;5.814;2022-11-21T05:49:11;38.20;;;23.73;;
59504;SDS011;45321;53.200;5.814;2022-11-21T05:51:37;38.17;;;23.63;;
59504;SDS011;45321;53.200;5.814;2022-11-21T05:54:02;38.30;;;25.45;;
59504;SDS011;45321;53.200;5.814;2022-11-21T05:56:28;36.75;;;23.45;;
59504;SDS011;45321;53.200;5.814;2022-11-21T05:58:54;39.80;;;25.38;;
59504;SDS011;45321;53.200;5.814;2022-11-21T06:01:21;36.97;;;23.48;;
59504;SDS011;45321;53.200;5.814;2022-11-21T06:04:06;38.00;;;24.67;;
59504;SDS011;45321;53.200;5.814;2022-11-21T06:06:32;39.72;;;25.65;;
59504;SDS011;45321;53.200;5.814;2022-11-21T06:08:58;37.17;;;24.38;;
59504;SDS011;45321;53.200;5.814;2022-11-21T06:11:24;40.28;;;25.08;;
59504;SDS011;45321;53.200;5.814;2022-11-21T06:13:50;38.97;;;25.38;;
59504;SDS011;45321;53.200;5.814;2022-11-21T06:16:17;40.13;;;25.17;;
59504;SDS011;45321;53.200;5.814;2022-11-21T06:18:48;42.63;;;26.13;;
59504;SDS011;45321;53.200;5.814;2022-11-21T06:21:23;40.95;;;27.20;;
59504;SDS011;45321;53.200;5.814;2022-11-21T06:23:51;41.33;;;25.88;;
59504;SDS011;45321;53.200;5.814;2022-11-21T06:26:19;44.80;;;26.83;;
59504;SDS011;45321;53.200;5.814;2022-11-21T06:28:46;42.15;;;27.08;;
59504;SDS011;45321;53.200;5.814;2022-11-21T06:31:17;45.72;;;26.08;;
59504;SDS011;45321;53.200;5.814;2022-11-21T06:33:50;40.67;;;26.07;;
59504;SDS011;45321;53.200;5.814;2022-11-21T06:36:17;47.08;;;27.70;;
59504;SDS011;45321;53.200;5.814;2022-11-21T06:38:43;45.28;;;25.98;;
59504;SDS011;45321;53.200;5.814;2022-11-21T06:41:11;42.92;;;26.92;;
59504;SDS011;45321;53.200;5.814;2022-11-21T06:43:41;45.78;;;27.88;;
59504;SDS011;45321;53.200;5.814;2022-11-21T06:46:07;48.42;;;27.50;;
59504;SDS011;45321;53.200;5.814;2022-11-21T06:48:34;47.08;;;27.00;;
59504;SDS011;45321;53.200;5.814;2022-11-21T06:51:04;51.13;;;27.88;;
59504;SDS011;45321;53.200;5.814;2022-11-21T06:53:41;59.88;;;29.13;;
59504;SDS011;45321;53.200;5.814;2022-11-21T06:56:07;84.68;;;28.55;;
59504;SDS011;45321;53.200;5.814;2022-11-21T06:58:33;60.03;;;27.65;;
59504;SDS011;45321;53.200;5.814;2022-11-21T07:01:03;72.18;;;27.95;;
59504;SDS011;45321;53.200;5.814;2022-11-21T07:03:29;92.40;;;29.20;;
59504;SDS011;45321;53.200;5.814;2022-11-21T07:05:55;57.53;;;30.70;;
59504;SDS011;45321;53.200;5.814;2022-11-21T07:08:24;57.42;;;31.83;;
59504;SDS011;45321;53.200;5.814;2022-11-21T07:10:51;61.92;;;30.38;;
59504;SDS011;45321;53.200;5.814;2022-11-21T07:13:17;60.05;;;31.60;;
59504;SDS011;45321;53.200;5.814;2022-11-21T07:15:50;57.42;;;30.80;;
59504;SDS011;45321;53.200;5.814;2022-11-21T07:18:18;63.83;;;32.05;;
59504;SDS011;45321;53.200;5.814;2022-11-21T07:20:44;62.50;;;31.13;;
59504;SDS011;45321;53.200;5.814;2022-11-21T07:23:10;61.95;;;31.67;;
59504;SDS011;45321;53.200;5.814;2022-11-21T07:25:36;59.05;;;30.50;;
59504;SDS011;45321;53.200;5.814;2022-11-21T07:28:03;58.33;;;31.33;;
59504;SDS011;45321;53.200;5.814;2022-11-21T07:30:30;55.15;;;29.77;;
59504;SDS011;45321;53.200;5.814;2022-11-21T07:32:56;58.83;;;31.65;;
59504;SDS011;45321;53.200;5.814;2022-11-21T07:35:26;54.72;;;30.67;;
59504;SDS011;45321;53.200;5.814;2022-11-21T07:37:52;57.90;;;29.48;;
59504;SDS011;45321;53.200;5.814;2022-11-21T07:40:18;50.40;;;28.83;;
59504;SDS011;45321;53.200;5.814;2022-11-21T07:42:44;53.45;;;29.13;;
59504;SDS011;45321;53.200;5.814;2022-11-21T07:45:11;51.78;;;29.55;;
59504;SDS011;45321;53.200;5.814;2022-11-21T07:47:37;49.10;;;28.23;;
59504;SDS011;45321;53.200;5.814;2022-11-21T07:50:03;43.55;;;26.50;;
59504;SDS011;45321;53.200;5.814;2022-11-21T07:52:30;48.97;;;27.83;;
59504;SDS011;45321;53.200;5.814;2022-11-21T07:54:56;50.22;;;28.85;;
59504;SDS011;45321;53.200;5.814;2022-11-21T07:57:22;46.03;;;27.17;;
59504;SDS011;45321;53.200;5.814;2022-11-21T07:59:48;43.95;;;26.65;;
59504;SDS011;45321;53.200;5.814;2022-11-21T08:02:21;43.88;;;26.67;;
59504;SDS011;45321;53.200;5.814;2022-11-21T08:04:48;47.33;;;26.40;;
59504;SDS011;45321;53.200;5.814;2022-11-21T08:07:14;47.33;;;25.85;;
59504;SDS011;45321;53.200;5.814;2022-11-21T08:09:41;47.92;;;25.55;;
59504;SDS011;45321;53.200;5.814;2022-11-21T08:12:07;42.47;;;23.95;;
59504;SDS011;45321;53.200;5.814;2022-11-21T08:14:34;40.47;;;24.80;;
59504;SDS011;45321;53.200;5.814;2022-11-21T08:17:00;41.58;;;25.83;;
59504;SDS011;45321;53.200;5.814;2022-11-21T08:19:26;43.88;;;25.95;;
59504;SDS011;45321;53.200;5.814;2022-11-21T08:21:52;49.00;;;25.48;;
59504;SDS011;45321;53.200;5.814;2022-11-21T08:24:17;48.25;;;25.30;;
59504;SDS011;45321;53.200;5.814;2022-11-21T08:26:43;48.30;;;23.92;;
59504;SDS011;45321;53.200;5.814;2022-11-21T08:29:10;50.30;;;26.35;;
59504;SDS011;45321;53.200;5.814;2022-11-21T08:31:36;58.72;;;25.90;;
59504;SDS011;45321;53.200;5.814;2022-11-21T08:34:02;57.50;;;26.27;;
59504;SDS011;45321;53.200;5.814;2022-11-21T08:36:28;84.63;;;27.23;;
59504;SDS011;45321;53.200;5.814;2022-11-21T08:38:54;48.25;;;25.98;;
59504;SDS011;45321;53.200;5.814;2022-11-21T08:41:19;51.22;;;26.15;;
59504;SDS011;45321;53.200;5.814;2022-11-21T08:44:04;51.53;;;26.58;;
59504;SDS011;45321;53.200;5.814;2022-11-21T08:46:30;53.58;;;26.70;;
59504;SDS011;45321;53.200;5.814;2022-11-21T08:48:59;42.55;;;24.85;;
59504;SDS011;45321;53.200;5.814;2022-11-21T08:51:25;40.83;;;23.33;;
59504;SDS011;45321;53.200;5.814;2022-11-21T08:53:51;43.63;;;23.65;;
59504;SDS011;45321;53.200;5.814;2022-11-21T08:56:16;69.07;;;24.15;;
59504;SDS011;45321;53.200;5.814;2022-11-21T08:58:42;45.28;;;26.00;;
59504;SDS011;45321;53.200;5.814;2022-11-21T09:01:08;48.05;;;25.55;;
59504;SDS011;45321;53.200;5.814;2022-11-21T09:03:33;45.75;;;25.42;;
59504;SDS011;45321;53.200;5.814;2022-11-21T09:05:59;48.50;;;24.50;;
59504;SDS011;45321;53.200;5.814;2022-11-21T09:08:25;41.00;;;23.30;;
59504;SDS011;45321;53.200;5.814;2022-11-21T09:10:51;42.67;;;23.85;;
59504;SDS011;45321;53.200;5.814;2022-11-21T09:13:17;41.55;;;22.50;;
59504;SDS011;45321;53.200;5.814;2022-11-21T09:15:42;51.70;;;21.65;;
59504;SDS011;45321;53.200;5.814;2022-11-21T09:18:26;33.33;;;19.42;;
59504;SDS011;45321;53.200;5.814;2022-11-21T09:20:52;30.42;;;18.77;;
59504;SDS011;45321;53.200;5.814;2022-11-21T09:23:18;35.40;;;19.30;;
59504;SDS011;45321;53.200;5.814;2022-11-21T09:25:43;28.27;;;18.55;;
59504;SDS011;45321;53.200;5.814;2022-11-21T09:28:10;40.75;;;19.08;;
59504;SDS011;45321;53.200;5.814;2022-11-21T09:30:37;30.83;;;18.88;;
59504;SDS011;45321;53.200;5.814;2022-11-21T09:33:09;25.92;;;17.70;;
59504;SDS011;45321;53.200;5.814;2022-11-21T09:35:36;26.10;;;17.10;;
59504;SDS011;45321;53.200;5.814;2022-11-21T09:38:03;25.73;;;17.10;;
59504;SDS011;45321;53.200;5.814;2022-11-21T09:40:29;25.10;;;17.42;;
59504;SDS011;45321;53.200;5.814;2022-11-21T09:46:14;25.40;;;16.52;;
59504;SDS011;45321;53.200;5.814;2022-11-21T09:48:45;21.90;;;15.48;;
59504;SDS011;45321;53.200;5.814;2022-11-21T09:51:22;23.77;;;16.20;;
59504;SDS011;45321;53.200;5.814;2022-11-21T09:56:32;22.65;;;16.55;;
59504;SDS011;45321;53.200;5.814;2022-11-21T10:01:48;21.60;;;16.17;;
59504;SDS011;45321;53.200;5.814;2022-11-21T10:04:15;23.58;;;15.93;;
59504;SDS011;45321;53.200;5.814;2022-11-21T10:22:35;22.30;;;15.60;;
59504;SDS011;45321;53.200;5.814;2022-11-21T10:25:20;21.90;;;15.13;;
59504;SDS011;45321;53.200;5.814;2022-11-21T10:27:54;21.63;;;15.68;;
59504;SDS011;45321;53.200;5.814;2022-11-21T10:30:24;23.45;;;16.02;;
59504;SDS011;45321;53.200;5.814;2022-11-21T10:32:52;20.65;;;15.20;;
59504;SDS011;45321;53.200;5.814;2022-11-21T10:35:25;22.05;;;14.88;;
59504;SDS011;45321;53.200;5.814;2022-11-21T10:38:00;23.65;;;16.05;;
59504;SDS011;45321;53.200;5.814;2022-11-21T10:40:37;22.15;;;15.80;;
59504;SDS011;45321;53.200;5.814;2022-11-21T10:46:06;22.70;;;15.25;;
59504;SDS011;45321;53.200;5.814;2022-11-21T10:48:32;20.55;;;14.77;;
59504;SDS011;45321;53.200;5.814;2022-11-21T10:53:46;19.65;;;13.73;;
59504;SDS011;45321;53.200;5.814;2022-11-21T10:56:44;18.23;;;13.95;;
59504;SDS011;45321;53.200;5.814;2022-11-21T10:59:11;17.05;;;12.98;;
59504;SDS011;45321;53.200;5.814;2022-11-21T11:01:52;18.33;;;13.40;;
59504;SDS011;45321;53.200;5.814;2022-11-21T11:04:23;17.45;;;12.20;;
59504;SDS011;45321;53.200;5.814;2022-11-21T11:06:51;17.25;;;13.07;;
59504;SDS011;45321;53.200;5.814;2022-11-21T11:09:28;16.95;;;13.38;;
59504;SDS011;45321;53.200;5.814;2022-11-21T11:12:15;17.45;;;12.35;;
59504;SDS011;45321;53.200;5.814;2022-11-21T11:15:15;17.33;;;13.10;;
59504;SDS011;45321;53.200;5.814;2022-11-21T11:17:56;15.65;;;12.27;;
59504;SDS011;45321;53.200;5.814;2022-11-21T11:22:52;16.35;;;12.27;;
59504;SDS011;45321;53.200;5.814;2022-11-21T11:25:18;16.85;;;12.85;;
59504;SDS011;45321;53.200;5.814;2022-11-21T11:27:43;17.55;;;12.80;;
59504;SDS011;45321;53.200;5.814;2022-11-21T11:30:17;15.48;;;11.82;;
59504;SDS011;45321;53.200;5.814;2022-11-21T11:32:44;16.83;;;12.98;;
59504;SDS011;45321;53.200;5.814;2022-11-21T11:37:41;17.10;;;13.38;;
59504;SDS011;45321;53.200;5.814;2022-11-21T11:45:48;15.07;;;11.90;;
59504;SDS011;45321;53.200;5.814;2022-11-21T11:48:35;14.10;;;11.13;;
59504;SDS011;45321;53.200;5.814;2022-11-21T11:51:37;15.05;;;11.98;;
59504;SDS011;45321;53.200;5.814;2022-11-21T11:54:16;15.55;;;11.35;;
59504;SDS011;45321;53.200;5.814;2022-11-21T11:56:45;13.98;;;11.32;;
59504;SDS011;45321;53.200;5.814;2022-11-21T12:01:56;12.98;;;10.43;;
59504;SDS011;45321;53.200;5.814;2022-11-21T12:04:27;12.40;;;10.10;;
59504;SDS011;45321;53.200;5.814;2022-11-21T12:12:09;12.50;;;10.00;;
59504;SDS011;45321;53.200;5.814;2022-11-21T12:37:08;12.35;;;10.13;;
59504;SDS011;45321;53.200;5.814;2022-11-21T12:45:32;13.32;;;11.02;;
59504;SDS011;45321;53.200;5.814;2022-11-21T13:02:23;17.17;;;13.00;;
59504;SDS011;45321;53.200;5.814;2022-11-21T13:04:50;19.30;;;14.88;;
59504;SDS011;45321;53.200;5.814;2022-11-21T13:07:19;19.73;;;14.73;;
59504;SDS011;45321;53.200;5.814;2022-11-21T13:09:47;19.77;;;14.77;;
59504;SDS011;45321;53.200;5.814;2022-11-21T13:12:18;18.52;;;15.38;;
59504;SDS011;45321;53.200;5.814;2022-11-21T13:14:57;20.17;;;15.07;;
59504;SDS011;45321;53.200;5.814;2022-11-21T13:17:52;19.15;;;15.48;;
59504;SDS011;45321;53.200;5.814;2022-11-21T13:20:49;21.15;;;15.38;;
59504;SDS011;45321;53.200;5.814;2022-11-21T13:29:07;23.73;;;16.95;;
59504;SDS011;45321;53.200;5.814;2022-11-21T13:31:37;24.90;;;17.27;;
59504;SDS011;45321;53.200;5.814;2022-11-21T13:34:08;24.63;;;17.20;;
59504;SDS011;45321;53.200;5.814;2022-11-21T13:37:00;23.23;;;17.42;;
59504;SDS011;45321;53.200;5.814;2022-11-21T13:39:27;24.08;;;17.42;;
59504;SDS011;45321;53.200;5.814;2022-11-21T13:44:42;24.95;;;17.80;;
59504;SDS011;45321;53.200;5.814;2022-11-21T13:47:28;23.65;;;17.27;;
59504;SDS011;45321;53.200;5.814;2022-11-21T13:53:20;24.60;;;17.25;;
59504;SDS011;45321;53.200;5.814;2022-11-21T13:56:04;25.27;;;17.75;;
59504;SDS011;45321;53.200;5.814;2022-11-21T13:59:02;23.85;;;17.15;;
59504;SDS011;45321;53.200;5.814;2022-11-21T14:07:39;27.08;;;17.33;;
59504;SDS011;45321;53.200;5.814;2022-11-21T14:13:01;24.90;;;17.77;;
59504;SDS011;45321;53.200;5.814;2022-11-21T14:15:38;29.05;;;18.63;;
59504;SDS011;45321;53.200;5.814;2022-11-21T14:18:23;27.30;;;18.05;;
59504;SDS011;45321;53.200;5.814;2022-11-21T14:20:54;29.00;;;18.33;;
59504;SDS011;45321;53.200;5.814;2022-11-21T14:23:31;29.85;;;18.50;;
59504;SDS011;45321;53.200;5.814;2022-11-21T14:25:59;26.70;;;17.65;;
59504;SDS011;45321;53.200;5.814;2022-11-21T14:28:32;25.75;;;18.33;;
59504;SDS011;45321;53.200;5.814;2022-11-21T14:31:09;28.33;;;18.83;;
59504;SDS011;45321;53.200;5.814;2022-11-21T14:33:37;29.48;;;18.83;;
59504;SDS011;45321;53.200;5.814;2022-11-21T14:36:06;33.63;;;20.42;;
59504;SDS011;45321;53.200;5.814;2022-11-21T14:38:40;33.15;;;19.80;;
59504;SDS011;45321;53.200;5.814;2022-11-21T14:46:39;32.30;;;19.23;;
59504;SDS011;45321;53.200;5.814;2022-11-21T14:49:27;31.23;;;19.35;;
59504;SDS011;45321;53.200;5.814;2022-11-21T14:51:57;28.38;;;17.63;;
59504;SDS011;45321;53.200;5.814;2022-11-21T14:54:50;29.55;;;18.45;;
59504;SDS011;45321;53.200;5.814;2022-11-21T14:57:21;32.78;;;18.52;;
59504;SDS011;45321;53.200;5.814;2022-11-21T14:59:50;31.98;;;19.55;;
59504;SDS011;45321;53.200;5.814;2022-11-21T15:02:17;39.88;;;19.67;;
59504;SDS011;45321;53.200;5.814;2022-11-21T15:04:45;36.33;;;19.25;;
59504;SDS011;45321;53.200;5.814;2022-11-21T15:07:33;33.97;;;18.80;;
59504;SDS011;45321;53.200;5.814;2022-11-21T15:10:03;35.10;;;19.48;;
59504;SDS011;45321;53.200;5.814;2022-11-21T15:12:30;37.38;;;18.52;;
59504;SDS011;45321;53.200;5.814;2022-11-21T15:15:18;32.53;;;18.20;;
59504;SDS011;45321;53.200;5.814;2022-11-21T15:18:00;37.15;;;19.35;;
59504;SDS011;45321;53.200;5.814;2022-11-21T15:20:28;38.95;;;18.55;;
59504;SDS011;45321;53.200;5.814;2022-11-21T15:22:55;32.92;;;18.60;;
59504;SDS011;45321;53.200;5.814;2022-11-21T15:25:27;35.83;;;18.65;;
59504;SDS011;45321;53.200;5.814;2022-11-21T15:35:57;48.22;;;21.70;;
59504;SDS011;45321;53.200;5.814;2022-11-21T15:38:48;53.28;;;21.58;;
59504;SDS011;45321;53.200;5.814;2022-11-21T15:41:32;46.33;;;22.27;;
59504;SDS011;45321;53.200;5.814;2022-11-21T15:46:35;53.65;;;20.60;;
59504;SDS011;45321;53.200;5.814;2022-11-21T15:49:06;47.17;;;21.33;;
59504;SDS011;45321;53.200;5.814;2022-11-21T15:51:51;56.33;;;21.98;;
59504;SDS011;45321;53.200;5.814;2022-11-21T15:54:19;51.53;;;19.00;;
59504;SDS011;45321;53.200;5.814;2022-11-21T15:56:46;50.85;;;20.65;;
59504;SDS011;45321;53.200;5.814;2022-11-21T15:59:12;48.40;;;21.13;;
59504;SDS011;45321;53.200;5.814;2022-11-21T16:01:40;41.55;;;18.77;;
59504;SDS011;45321;53.200;5.814;2022-11-21T16:04:09;64.68;;;21.35;;
59504;SDS011;45321;53.200;5.814;2022-11-21T16:06:36;49.08;;;21.10;;
59504;SDS011;45321;53.200;5.814;2022-11-21T16:09:02;54.03;;;20.95;;
59504;SDS011;45321;53.200;5.814;2022-11-21T16:11:29;52.35;;;20.05;;
59504;SDS011;45321;53.200;5.814;2022-11-21T16:14:01;60.03;;;22.85;;
59504;SDS011;45321;53.200;5.814;2022-11-21T16:16:29;55.75;;;23.38;;
59504;SDS011;45321;53.200;5.814;2022-11-21T16:18:57;57.65;;;21.65;;
59504;SDS011;45321;53.200;5.814;2022-11-21T16:21:24;49.20;;;20.75;;
59504;SDS011;45321;53.200;5.814;2022-11-21T16:23:50;66.97;;;21.15;;
59504;SDS011;45321;53.200;5.814;2022-11-21T16:26:16;64.97;;;22.13;;
59504;SDS011;45321;53.200;5.814;2022-11-21T16:28:43;56.10;;;23.00;;
59504;SDS011;45321;53.200;5.814;2022-11-21T16:31:25;54.40;;;22.33;;
59504;SDS011;45321;53.200;5.814;2022-11-21T16:33:54;56.25;;;22.75;;
59504;SDS011;45321;53.200;5.814;2022-11-21T16:36:24;65.38;;;22.83;;
59504;SDS011;45321;53.200;5.814;2022-11-21T16:38:52;64.03;;;23.65;;
59504;SDS011;45321;53.200;5.814;2022-11-21T16:41:18;53.92;;;23.13;;
59504;SDS011;45321;53.200;5.814;2022-11-21T16:43:47;54.22;;;20.73;;
59504;SDS011;45321;53.200;5.814;2022-11-21T16:46:14;46.50;;;21.70;;
59504;SDS011;45321;53.200;5.814;2022-11-21T16:48:40;59.97;;;22.42;;
59504;SDS011;45321;53.200;5.814;2022-11-21T16:51:19;55.45;;;21.10;;